Time;durP1;ratioP1;P1;durP2;ratioP2;P2;SDS_P1;SDS_P2;PMS_P1;PMS_P2;Temp;Humidity;BMP_temperature;BMP_pressure;BME280_temperature;BME280_humidity;BME280_pressure;Samples;Min_cycle;Max_cycle;Signal;HPM_P1;HPM_P2
2022/12/19 00:01:17;;;;;;;;;16.75;14.00;;;;;;;;5042047;28;61891;-76
2022/12/19 00:03:51;;;;;;;;;27.50;17.75;;;;;;;;5042338;28;62005;-76
2022/12/19 00:06:17;;;;;;;;;23.00;18.75;;;;;;;;5042869;28;62096;-76
2022/12/19 00:08:43;;;;;;;;;17.50;14.25;;;;;;;;5043051;28;61913;-76
2022/12/19 00:11:09;;;;;;;;;21.50;17.75;;;;;;;;5042020;28;61997;-76
2022/12/19 00:13:34;;;;;;;;;17.75;15.25;;;;;;;;5041979;28;61833;-77
2022/12/19 00:16:20;;;;;;;;;18.75;17.00;;;;;;;;5041524;28;63784;-76
2022/12/19 00:18:46;;;;;;;;;21.00;18.00;;;;;;;;5050364;28;61932;-76
2022/12/19 00:21:13;;;;;;;;;23.50;19.75;;;;;;;;5041081;28;61899;-76
2022/12/19 00:23:38;;;;;;;;;18.75;18.75;;;;;;;;5043191;28;61874;-76
2022/12/19 00:26:08;;;;;;;;;19.00;18.25;;;;;;;;5040909;28;65028;-76
2022/12/19 00:28:33;;;;;;;;;25.75;18.00;;;;;;;;5041736;28;61855;-76
2022/12/19 00:31:02;;;;;;;;;20.50;16.25;;;;;;;;5041785;28;62010;-76
2022/12/19 00:33:27;;;;;;;;;25.75;21.25;;;;;;;;5043094;28;61713;-76
2022/12/19 00:36:00;;;;;;;;;19.75;16.00;;;;;;;;5042430;28;61892;-76
2022/12/19 00:38:26;;;;;;;;;19.75;16.75;;;;;;;;5042791;28;61959;-76
2022/12/19 00:40:51;;;;;;;;;20.50;17.00;;;;;;;;5042590;28;61959;-77
2022/12/19 00:43:16;;;;;;;;;14.25;12.25;;;;;;;;5043071;28;61748;-76
2022/12/19 00:45:41;;;;;;;;;18.00;14.00;;;;;;;;5042279;28;62761;-76
2022/12/19 00:48:07;;;;;;;;;20.00;14.50;;;;;;;;5041587;28;61816;-76
2022/12/19 00:50:32;;;;;;;;;17.25;14.75;;;;;;;;5042705;28;61767;-76
2022/12/19 00:52:57;;;;;;;;;14.00;12.25;;;;;;;;5042586;28;62266;-76
2022/12/19 00:55:22;;;;;;;;;19.00;16.25;;;;;;;;5040558;28;63805;-76
2022/12/19 00:57:48;;;;;;;;;12.50;9.50;;;;;;;;5042666;28;61948;-76
2022/12/19 01:00:13;;;;;;;;;21.50;14.25;;;;;;;;5041519;28;62042;-76
2022/12/19 01:02:39;;;;;;;;;13.75;13.75;;;;;;;;5042702;28;61891;-76
2022/12/19 01:05:04;;;;;;;;;21.75;17.25;;;;;;;;5041867;28;62647;-76
2022/12/19 01:07:29;;;;;;;;;13.75;12.25;;;;;;;;5042216;28;61850;-76
2022/12/19 01:09:55;;;;;;;;;20.00;12.50;;;;;;;;5040899;28;61884;-76
2022/12/19 01:15:04;;;;;;;;;12.25;11.50;;;;;;;;5042039;28;61858;-76
2022/12/19 01:17:29;;;;;;;;;20.00;12.50;;;;;;;;5042277;28;61745;-76
2022/12/19 01:19:54;;;;;;;;;11.75;11.75;;;;;;;;5042141;28;61768;-77
2022/12/19 01:22:19;;;;;;;;;14.75;12.75;;;;;;;;5040709;28;61835;-76
2022/12/19 01:24:45;;;;;;;;;19.00;14.25;;;;;;;;5041479;28;62829;-76
2022/12/19 01:27:10;;;;;;;;;11.25;9.25;;;;;;;;5042319;28;61888;-77
2022/12/19 01:29:35;;;;;;;;;12.50;11.00;;;;;;;;5042348;28;61897;-76
2022/12/19 01:32:00;;;;;;;;;14.25;10.25;;;;;;;;5042311;28;62117;-76
2022/12/19 01:34:29;;;;;;;;;14.25;11.50;;;;;;;;5041856;28;61828;-76
2022/12/19 01:36:54;;;;;;;;;11.00;10.25;;;;;;;;5041698;28;62075;-76
2022/12/19 01:39:19;;;;;;;;;16.50;14.25;;;;;;;;5040375;28;62004;-76
2022/12/19 01:41:45;;;;;;;;;13.50;10.50;;;;;;;;5042926;28;61883;-76
2022/12/19 01:44:10;;;;;;;;;11.75;10.00;;;;;;;;5041379;28;61862;-76
2022/12/19 01:46:41;;;;;;;;;16.50;14.00;;;;;;;;5041930;28;61936;-76
2022/12/19 01:49:13;;;;;;;;;17.50;14.25;;;;;;;;5041721;28;61798;-76
2022/12/19 01:51:44;;;;;;;;;16.75;11.00;;;;;;;;5041914;28;61898;-76
2022/12/19 01:54:12;;;;;;;;;10.00;2.75;;;;;;;;5039694;28;63947;-76
2022/12/19 01:56:39;;;;;;;;;15.25;11.00;;;;;;;;5041853;28;61932;-76
2022/12/19 01:59:07;;;;;;;;;15.00;11.75;;;;;;;;5041764;28;61849;-76
2022/12/19 02:01:32;;;;;;;;;12.00;11.00;;;;;;;;5042181;28;61899;-76
2022/12/19 02:04:00;;;;;;;;;16.00;11.25;;;;;;;;5041080;28;63013;-76
2022/12/19 02:06:26;;;;;;;;;15.00;12.00;;;;;;;;5041598;28;61797;-76
2022/12/19 02:08:52;;;;;;;;;15.50;11.75;;;;;;;;5041482;28;61914;-76
2022/12/19 02:11:17;;;;;;;;;17.50;11.00;;;;;;;;5041894;28;62009;-76
2022/12/19 02:13:43;;;;;;;;;15.75;11.75;;;;;;;;5041072;28;62635;-76
2022/12/19 02:16:08;;;;;;;;;10.75;10.75;;;;;;;;5039895;28;62071;-76
2022/12/19 02:18:44;;;;;;;;;13.25;13.25;;;;;;;;5041510;28;61774;-76
2022/12/19 02:21:13;;;;;;;;;12.00;8.25;;;;;;;;5041258;28;61825;-76
2022/12/19 02:23:54;;;;;;;;;16.75;10.25;;;;;;;;5039531;28;64300;-76
2022/12/19 02:26:28;;;;;;;;;15.75;11.25;;;;;;;;5041347;28;61876;-76
2022/12/19 02:28:53;;;;;;;;;11.25;10.25;;;;;;;;5041326;28;61746;-76
2022/12/19 02:31:24;;;;;;;;;11.00;11.00;;;;;;;;5040360;28;61778;-76
2022/12/19 02:34:02;;;;;;;;;13.25;11.75;;;;;;;;5041116;28;62698;-76
2022/12/19 02:36:34;;;;;;;;;15.50;10.25;;;;;;;;5041210;28;61743;-76
2022/12/19 02:39:02;;;;;;;;;11.25;8.25;;;;;;;;5041145;28;61768;-76
2022/12/19 02:41:42;;;;;;;;;13.00;10.00;;;;;;;;5041552;28;61691;-76
2022/12/19 02:44:11;;;;;;;;;9.50;9.50;;;;;;;;5040476;28;64696;-76
2022/12/19 02:46:36;;;;;;;;;10.25;7.00;;;;;;;;5044923;28;61822;-76
2022/12/19 02:49:02;;;;;;;;;17.00;8.00;;;;;;;;5042885;28;62069;-76
2022/12/19 02:51:27;;;;;;;;;20.00;11.75;;;;;;;;5043332;28;61734;-76
2022/12/19 02:53:53;;;;;;;;;21.00;11.75;;;;;;;;5043990;28;62658;-76
2022/12/19 02:56:33;;;;;;;;;11.00;10.00;;;;;;;;5044459;28;61992;-76
2022/12/19 02:58:59;;;;;;;;;7.50;7.00;;;;;;;;5043383;28;61903;-76
2022/12/19 03:01:34;;;;;;;;;9.50;9.00;;;;;;;;5044693;28;61992;-76
2022/12/19 03:03:59;;;;;;;;;13.75;7.25;;;;;;;;5042363;28;64895;-76
2022/12/19 03:06:29;;;;;;;;;11.00;10.50;;;;;;;;5044417;28;61865;-76
2022/12/19 03:09:01;;;;;;;;;10.00;6.00;;;;;;;;5044483;28;61977;-76
2022/12/19 03:11:29;;;;;;;;;8.75;8.75;;;;;;;;5044456;28;62160;-76
2022/12/19 03:14:04;;;;;;;;;13.25;10.50;;;;;;;;5043843;28;61734;-76
2022/12/19 03:16:30;;;;;;;;;6.50;6.50;;;;;;;;5044135;28;61839;-75
2022/12/19 03:18:56;;;;;;;;;10.50;10.00;;;;;;;;5043743;28;61747;-76
2022/12/19 03:21:33;;;;;;;;;9.00;6.50;;;;;;;;5042760;28;62177;-76
2022/12/19 03:23:59;;;;;;;;;9.50;7.75;;;;;;;;5042110;28;63637;-76
2022/12/19 03:26:27;;;;;;;;;13.25;9.25;;;;;;;;5043766;28;61720;-76
2022/12/19 03:28:59;;;;;;;;;7.75;6.50;;;;;;;;5044337;28;61752;-76
2022/12/19 03:31:27;;;;;;;;;16.25;11.00;;;;;;;;5043939;28;62174;-76
2022/12/19 03:34:08;;;;;;;;;7.00;7.00;;;;;;;;5043201;28;61939;-76
2022/12/19 03:36:39;;;;;;;;;10.50;7.50;;;;;;;;5042827;28;61761;-76
2022/12/19 03:39:06;;;;;;;;;8.50;7.00;;;;;;;;5043883;28;62036;-76
2022/12/19 03:44:18;;;;;;;;;12.75;11.00;;;;;;;;5043329;28;61722;-76
2022/12/19 03:46:47;;;;;;;;;9.25;8.00;;;;;;;;5043627;28;61853;-76
2022/12/19 03:49:12;;;;;;;;;9.00;8.00;;;;;;;;5042066;28;61860;-76
2022/12/19 03:51:44;;;;;;;;;12.50;8.00;;;;;;;;5042485;28;61887;-76
2022/12/19 03:54:17;;;;;;;;;12.50;10.25;;;;;;;;5042971;28;61758;-76
2022/12/19 03:56:45;;;;;;;;;11.50;7.50;;;;;;;;5043004;28;61818;-76
2022/12/19 03:59:17;;;;;;;;;10.25;9.75;;;;;;;;5042555;28;62042;-76
2022/12/19 04:01:43;;;;;;;;;15.00;10.00;;;;;;;;5043600;28;61869;-76
2022/12/19 04:04:08;;;;;;;;;11.00;8.75;;;;;;;;5042953;28;61829;-76
2022/12/19 04:06:34;;;;;;;;;15.75;11.25;;;;;;;;5043354;28;61902;-76
2022/12/19 04:09:00;;;;;;;;;15.50;12.00;;;;;;;;5043367;28;61988;-76
2022/12/19 04:11:26;;;;;;;;;13.50;11.50;;;;;;;;5043401;28;61784;-76
2022/12/19 04:13:59;;;;;;;;;13.50;9.25;;;;;;;;5042991;28;62061;-76
2022/12/19 04:16:43;;;;;;;;;13.50;11.75;;;;;;;;5043082;28;61754;-76
2022/12/19 04:19:31;;;;;;;;;8.00;6.75;;;;;;;;5043269;28;61833;-76
2022/12/19 04:22:01;;;;;;;;;12.50;10.00;;;;;;;;5033785;28;61865;-76
2022/12/19 04:24:31;;;;;;;;;12.50;11.25;;;;;;;;5042551;28;61878;-76
2022/12/19 04:26:58;;;;;;;;;11.00;10.00;;;;;;;;5043234;28;61715;-76
2022/12/19 04:29:25;;;;;;;;;12.75;10.50;;;;;;;;5043220;28;61852;-76
2022/12/19 04:31:51;;;;;;;;;13.25;11.00;;;;;;;;5043260;28;61843;-76
2022/12/19 04:34:18;;;;;;;;;10.00;8.25;;;;;;;;5042646;28;61735;-76
2022/12/19 04:36:44;;;;;;;;;9.75;7.00;;;;;;;;5043034;28;61974;-76
2022/12/19 04:39:09;;;;;;;;;8.75;7.50;;;;;;;;5043068;28;62136;-76
2022/12/19 04:41:34;;;;;;;;;10.25;6.75;;;;;;;;5042903;28;61758;-76
2022/12/19 04:43:59;;;;;;;;;13.75;10.00;;;;;;;;5042415;28;61745;-76
2022/12/19 04:46:25;;;;;;;;;9.75;7.75;;;;;;;;5042574;28;62209;-76
2022/12/19 04:48:50;;;;;;;;;7.50;7.00;;;;;;;;5042761;28;61820;-76
2022/12/19 04:51:15;;;;;;;;;11.75;7.25;;;;;;;;5041458;28;62015;-76
2022/12/19 04:53:40;;;;;;;;;11.50;8.75;;;;;;;;5042210;28;61849;-76
2022/12/19 04:56:06;;;;;;;;;13.75;11.00;;;;;;;;5042401;28;61832;-76
2022/12/19 04:58:31;;;;;;;;;7.25;7.25;;;;;;;;5041455;28;61798;-76
2022/12/19 05:01:04;;;;;;;;;6.25;6.00;;;;;;;;5042941;28;61783;-76
2022/12/19 05:03:34;;;;;;;;;8.75;8.75;;;;;;;;5041953;28;62782;-76
2022/12/19 05:06:07;;;;;;;;;8.25;8.00;;;;;;;;5042391;28;61890;-76
2022/12/19 05:08:35;;;;;;;;;10.25;7.00;;;;;;;;5042470;28;61804;-76
2022/12/19 05:11:01;;;;;;;;;9.50;7.00;;;;;;;;5042915;28;61907;-76
2022/12/19 05:13:26;;;;;;;;;10.50;9.25;;;;;;;;5041971;28;61846;-76
2022/12/19 05:15:56;;;;;;;;;11.00;7.00;;;;;;;;5042347;28;61822;-76
2022/12/19 05:18:21;;;;;;;;;5.00;5.00;;;;;;;;5040803;28;61996;-77
2022/12/19 05:20:50;;;;;;;;;10.50;9.00;;;;;;;;5042193;28;61734;-76
2022/12/19 05:23:15;;;;;;;;;12.00;10.25;;;;;;;;5041791;28;62672;-76
2022/12/19 05:25:40;;;;;;;;;8.75;8.75;;;;;;;;5042196;28;61695;-76
2022/12/19 05:28:05;;;;;;;;;12.00;11.00;;;;;;;;5041051;28;61721;-76
2022/12/19 05:30:31;;;;;;;;;15.75;9.75;;;;;;;;5042394;28;62126;-76
2022/12/19 05:32:56;;;;;;;;;16.25;10.00;;;;;;;;5041744;28;61869;-76
2022/12/19 05:35:21;;;;;;;;;11.75;8.50;;;;;;;;5042185;28;61860;-76
2022/12/19 05:37:47;;;;;;;;;14.25;10.50;;;;;;;;5042255;28;61696;-76
2022/12/19 05:40:12;;;;;;;;;10.75;9.00;;;;;;;;5042238;28;61780;-76
2022/12/19 05:42:37;;;;;;;;;15.00;10.00;;;;;;;;5041384;28;62767;-76
2022/12/19 05:45:03;;;;;;;;;13.25;12.00;;;;;;;;5041843;28;61857;-76
2022/12/19 05:47:28;;;;;;;;;17.25;16.75;;;;;;;;5041692;28;62152;-76
2022/12/19 05:49:53;;;;;;;;;19.50;17.25;;;;;;;;5040532;28;61794;-76
2022/12/19 05:52:18;;;;;;;;;23.50;18.75;;;;;;;;5041238;28;62247;-76
2022/12/19 05:54:44;;;;;;;;;17.00;17.00;;;;;;;;5041569;28;61957;-76
2022/12/19 05:57:09;;;;;;;;;14.50;14.00;;;;;;;;5042141;28;61715;-76
2022/12/19 05:59:34;;;;;;;;;22.25;20.25;;;;;;;;5040413;28;61829;-76
2022/12/19 06:01:59;;;;;;;;;23.50;20.25;;;;;;;;5039833;28;63911;-76
2022/12/19 06:04:25;;;;;;;;;16.50;16.50;;;;;;;;5042112;28;62069;-76
2022/12/19 06:06:50;;;;;;;;;37.50;31.25;;;;;;;;5041494;28;61926;-76
2022/12/19 06:09:15;;;;;;;;;26.00;21.25;;;;;;;;5041632;28;61754;-76
2022/12/19 06:11:40;;;;;;;;;31.75;25.50;;;;;;;;5041028;28;61886;-77
2022/12/19 06:14:06;;;;;;;;;28.75;22.00;;;;;;;;5041319;28;62067;-76
2022/12/19 06:16:31;;;;;;;;;25.25;14.50;;;;;;;;5041730;28;62008;-76
2022/12/19 06:18:56;;;;;;;;;27.00;14.75;;;;;;;;5042828;28;61952;-76
2022/12/19 06:21:22;;;;;;;;;15.75;11.75;;;;;;;;5044286;28;61829;-76
2022/12/19 06:23:48;;;;;;;;;13.50;6.50;;;;;;;;5044285;28;61889;-76
2022/12/19 06:26:14;;;;;;;;;12.25;11.00;;;;;;;;5044265;28;62001;-76
2022/12/19 06:28:39;;;;;;;;;8.75;8.75;;;;;;;;5044126;28;61821;-76
2022/12/19 06:31:05;;;;;;;;;7.50;6.75;;;;;;;;5042000;28;64085;-75
2022/12/19 06:33:31;;;;;;;;;11.25;9.00;;;;;;;;5044115;28;61838;-76
2022/12/19 06:35:57;;;;;;;;;11.00;8.50;;;;;;;;5042529;28;61884;-76
2022/12/19 06:38:22;;;;;;;;;12.00;6.00;;;;;;;;5042998;28;62060;-76
2022/12/19 06:43:31;;;;;;;;;8.00;8.00;;;;;;;;5043887;28;61940;-76
2022/12/19 06:45:57;;;;;;;;;7.00;7.00;;;;;;;;5042606;28;61924;-76
2022/12/19 06:48:22;;;;;;;;;6.00;5.00;;;;;;;;5042599;28;61870;-76
2022/12/19 06:50:47;;;;;;;;;13.00;9.00;;;;;;;;5042510;28;61716;-76
2022/12/19 06:53:13;;;;;;;;;8.50;7.25;;;;;;;;5041170;28;62006;-75
2022/12/19 06:55:38;;;;;;;;;12.25;8.25;;;;;;;;5041373;28;61759;-75
2022/12/19 06:58:03;;;;;;;;;8.00;7.50;;;;;;;;5041809;28;61955;-75
2022/12/19 07:00:29;;;;;;;;;16.25;7.00;;;;;;;;5042983;28;62181;-75
2022/12/19 07:02:55;;;;;;;;;9.00;7.00;;;;;;;;5043436;28;61711;-76
2022/12/19 07:05:20;;;;;;;;;7.00;3.00;;;;;;;;5043376;28;61777;-75
2022/12/19 07:07:45;;;;;;;;;7.50;7.25;;;;;;;;5041642;28;62118;-76
2022/12/19 07:10:11;;;;;;;;;8.75;6.25;;;;;;;;5040160;28;61777;-75
2022/12/19 07:12:36;;;;;;;;;8.00;8.00;;;;;;;;5042758;28;61749;-75
2022/12/19 07:15:01;;;;;;;;;9.25;6.25;;;;;;;;5037113;28;61901;-75
2022/12/19 07:17:27;;;;;;;;;9.00;7.50;;;;;;;;5041614;28;61675;-75
2022/12/19 07:19:54;;;;;;;;;9.00;7.75;;;;;;;;5040514;28;64931;-75
2022/12/19 07:22:20;;;;;;;;;6.75;6.75;;;;;;;;4990760;28;1496068;-75
2022/12/19 07:24:46;;;;;;;;;6.75;6.75;;;;;;;;5043709;28;61886;-75
2022/12/19 07:27:11;;;;;;;;;12.00;6.50;;;;;;;;5042653;28;61923;-75
2022/12/19 07:29:37;;;;;;;;;7.50;7.50;;;;;;;;5043415;28;62453;-75
2022/12/19 07:32:02;;;;;;;;;10.00;8.00;;;;;;;;5043802;28;61711;-75
2022/12/19 07:34:28;;;;;;;;;8.00;6.75;;;;;;;;5043974;28;62020;-75
2022/12/19 07:36:54;;;;;;;;;11.00;7.25;;;;;;;;5044138;28;61837;-76
2022/12/19 07:39:20;;;;;;;;;7.75;7.00;;;;;;;;5042715;28;61865;-75
2022/12/19 07:41:45;;;;;;;;;8.25;8.25;;;;;;;;5043938;28;61858;-76
2022/12/19 07:44:12;;;;;;;;;12.25;10.25;;;;;;;;5042173;28;61916;-75
2022/12/19 07:46:37;;;;;;;;;15.25;7.25;;;;;;;;5042580;28;61915;-76
2022/12/19 07:49:02;;;;;;;;;7.00;7.00;;;;;;;;5041564;28;63774;-76
2022/12/19 07:51:28;;;;;;;;;7.00;2.75;;;;;;;;5040308;28;62077;-76
2022/12/19 07:53:53;;;;;;;;;7.75;7.75;;;;;;;;5033187;28;61836;-76
2022/12/19 07:56:18;;;;;;;;;11.00;8.50;;;;;;;;5037134;28;61805;-75
2022/12/19 07:58:43;;;;;;;;;11.25;7.50;;;;;;;;5041381;28;62599;-76
2022/12/19 08:01:09;;;;;;;;;10.00;7.75;;;;;;;;5041947;28;61754;-75
2022/12/19 08:03:34;;;;;;;;;11.00;8.75;;;;;;;;5041077;28;61816;-75
2022/12/19 08:06:00;;;;;;;;;9.00;6.75;;;;;;;;5041508;28;62167;-75
2022/12/19 08:08:26;;;;;;;;;10.00;9.25;;;;;;;;5039700;28;61907;-75
2022/12/19 08:10:52;;;;;;;;;10.50;6.75;;;;;;;;5041385;28;61959;-75
2022/12/19 08:13:17;;;;;;;;;10.00;8.50;;;;;;;;5042643;28;61812;-75
2022/12/19 08:15:42;;;;;;;;;10.50;8.00;;;;;;;;5042699;28;61723;-75
2022/12/19 08:18:07;;;;;;;;;9.25;7.75;;;;;;;;5038742;28;61985;-76
2022/12/19 08:20:33;;;;;;;;;10.25;10.25;;;;;;;;5041591;28;62048;-75
2022/12/19 08:22:58;;;;;;;;;10.00;8.00;;;;;;;;5040840;28;62065;-75
2022/12/19 08:25:23;;;;;;;;;11.00;9.00;;;;;;;;5040429;28;61927;-75
2022/12/19 08:27:49;;;;;;;;;8.75;6.75;;;;;;;;5038985;28;63525;-75
2022/12/19 08:30:14;;;;;;;;;7.75;7.75;;;;;;;;5040775;28;61842;-74
2022/12/19 08:32:39;;;;;;;;;6.00;6.00;;;;;;;;5042132;28;61984;-75
2022/12/19 08:35:06;;;;;;;;;10.75;8.75;;;;;;;;5042107;28;61787;-75
2022/12/19 08:37:31;;;;;;;;;8.50;7.50;;;;;;;;5040863;28;61932;-75
2022/12/19 08:39:56;;;;;;;;;8.50;6.00;;;;;;;;5041855;28;61971;-75
2022/12/19 08:42:21;;;;;;;;;8.75;8.75;;;;;;;;5039622;28;61905;-74
2022/12/19 08:44:47;;;;;;;;;6.00;6.00;;;;;;;;5042177;28;61867;-78
2022/12/19 08:47:12;;;;;;;;;6.50;6.50;;;;;;;;5041680;28;61770;-75
2022/12/19 08:49:37;;;;;;;;;6.75;5.50;;;;;;;;5041222;28;61821;-76
2022/12/19 08:52:02;;;;;;;;;8.25;6.50;;;;;;;;5041932;28;61962;-75
2022/12/19 08:54:28;;;;;;;;;13.25;8.25;;;;;;;;5042387;28;62186;-75
2022/12/19 08:56:53;;;;;;;;;9.75;7.50;;;;;;;;5040326;28;64682;-76
2022/12/19 08:59:18;;;;;;;;;13.00;6.00;;;;;;;;5041018;28;61714;-75
2022/12/19 09:01:44;;;;;;;;;7.00;7.00;;;;;;;;5038761;28;61694;-76
2022/12/19 09:04:09;;;;;;;;;4.75;4.75;;;;;;;;5037866;28;62014;-75
2022/12/19 09:06:34;;;;;;;;;9.00;5.50;;;;;;;;5032738;28;62725;-75
2022/12/19 09:09:00;;;;;;;;;6.50;6.00;;;;;;;;5030849;28;61787;-75
2022/12/19 09:11:25;;;;;;;;;8.25;6.00;;;;;;;;5032123;28;61802;-75
2022/12/19 09:13:53;;;;;;;;;9.00;7.00;;;;;;;;5032363;28;61776;-75
2022/12/19 09:16:20;;;;;;;;;5.50;4.00;;;;;;;;5039287;28;62673;-75
2022/12/19 09:18:46;;;;;;;;;6.00;6.00;;;;;;;;5037467;28;62111;-76
2022/12/19 09:21:12;;;;;;;;;6.75;6.75;;;;;;;;5040231;28;61890;-74
2022/12/19 09:23:38;;;;;;;;;6.75;5.50;;;;;;;;5042122;28;61917;-75
2022/12/19 09:26:06;;;;;;;;;6.75;4.00;;;;;;;;5038422;28;65112;-75
2022/12/19 09:28:31;;;;;;;;;7.25;4.00;;;;;;;;5030235;28;61885;-75
2022/12/19 09:30:58;;;;;;;;;8.00;6.25;;;;;;;;5030817;28;62079;-75
2022/12/19 09:33:23;;;;;;;;;4.00;4.00;;;;;;;;5040548;28;61861;-75
2022/12/19 09:35:52;;;;;;;;;7.00;6.00;;;;;;;;5039354;28;62649;-75
2022/12/19 09:38:18;;;;;;;;;8.00;7.00;;;;;;;;5037066;28;61933;-75
2022/12/19 09:40:52;;;;;;;;;8.00;8.00;;;;;;;;5032967;28;62099;-76
2022/12/19 09:43:26;;;;;;;;;9.50;8.00;;;;;;;;5030109;28;62674;-76
2022/12/19 09:46:18;;;;;;;;;6.25;6.25;;;;;;;;5023325;28;63654;-76
2022/12/19 09:48:45;;;;;;;;;6.50;6.50;;;;;;;;5018617;28;61727;-76
2022/12/19 09:51:17;;;;;;;;;11.25;9.25;;;;;;;;5019569;28;61979;-75
2022/12/19 09:53:51;;;;;;;;;10.75;8.00;;;;;;;;5019660;28;61877;-76
2022/12/19 09:56:17;;;;;;;;;9.75;7.00;;;;;;;;5018887;28;62476;-76
2022/12/19 09:58:48;;;;;;;;;8.25;7.25;;;;;;;;5019964;28;61737;-75
2022/12/19 10:01:22;;;;;;;;;12.25;7.75;;;;;;;;5036898;28;62276;-76
2022/12/19 10:04:07;;;;;;;;;5.25;3.25;;;;;;;;5022294;28;61944;-75
2022/12/19 10:06:33;;;;;;;;;10.50;8.25;;;;;;;;5018904;28;61817;-75
2022/12/19 10:08:59;;;;;;;;;8.00;8.00;;;;;;;;5022154;28;62056;-75
2022/12/19 10:11:41;;;;;;;;;10.75;8.00;;;;;;;;5034756;28;61880;-75
2022/12/19 10:14:21;;;;;;;;;8.75;7.75;;;;;;;;5019357;28;61948;-75
2022/12/19 10:16:54;;;;;;;;;12.00;6.00;;;;;;;;5025452;28;62039;-75
2022/12/19 10:19:40;;;;;;;;;5.50;5.50;;;;;;;;5034325;28;62020;-75
2022/12/19 10:22:21;;;;;;;;;7.75;6.75;;;;;;;;5039486;28;61906;-75
2022/12/19 10:24:49;;;;;;;;;8.75;7.75;;;;;;;;5038074;28;61913;-75
2022/12/19 10:27:19;;;;;;;;;4.00;4.00;;;;;;;;5035092;28;64205;-75
2022/12/19 10:29:55;;;;;;;;;12.50;8.75;;;;;;;;5039396;28;61865;-75
2022/12/19 10:32:21;;;;;;;;;10.25;7.25;;;;;;;;5039561;28;61734;-75
2022/12/19 10:34:52;;;;;;;;;10.25;7.00;;;;;;;;5039008;28;62210;-75
2022/12/19 10:37:24;;;;;;;;;6.50;6.00;;;;;;;;5034727;28;63698;-75
2022/12/19 10:39:52;;;;;;;;;7.50;6.00;;;;;;;;5038974;28;62267;-75
2022/12/19 10:42:20;;;;;;;;;3.75;3.00;;;;;;;;5037882;28;61959;-75
2022/12/19 10:44:47;;;;;;;;;6.50;4.50;;;;;;;;5033707;28;61813;-74
2022/12/19 10:47:16;;;;;;;;;6.75;5.00;;;;;;;;5034858;28;64585;-75
2022/12/19 10:49:41;;;;;;;;;6.00;6.00;;;;;;;;5037751;28;61753;-74
2022/12/19 10:52:07;;;;;;;;;11.25;7.00;;;;;;;;5035666;28;62018;-75
2022/12/19 10:54:36;;;;;;;;;8.50;6.25;;;;;;;;5038091;28;61858;-74
2022/12/19 10:57:21;;;;;;;;;6.75;6.25;;;;;;;;5038372;28;61896;-75
2022/12/19 11:00:13;;;;;;;;;8.50;7.50;;;;;;;;5033102;28;61695;-75
2022/12/19 11:02:38;;;;;;;;;9.50;7.75;;;;;;;;5030059;28;61940;-75
2022/12/19 11:05:22;;;;;;;;;5.50;5.50;;;;;;;;5053390;28;61976;-74
2022/12/19 11:08:07;;;;;;;;;11.00;5.00;;;;;;;;5034014;28;61919;-74
2022/12/19 11:10:36;;;;;;;;;6.75;4.00;;;;;;;;5023971;28;61652;-75
2022/12/19 11:13:01;;;;;;;;;3.50;2.00;;;;;;;;5031562;28;61896;-75
2022/12/19 11:15:29;;;;;;;;;4.00;4.00;;;;;;;;5040655;28;61980;-75
2022/12/19 11:18:05;;;;;;;;;7.50;4.75;;;;;;;;5039449;28;62801;-75
2022/12/19 11:20:30;;;;;;;;;10.50;7.00;;;;;;;;5041726;28;61948;-74
2022/12/19 11:22:57;;;;;;;;;9.75;7.50;;;;;;;;5043190;28;62020;-74
2022/12/19 11:25:29;;;;;;;;;5.50;5.50;;;;;;;;5042742;28;62013;-74
2022/12/19 11:27:55;;;;;;;;;4.75;4.50;;;;;;;;5042940;28;61678;-75
2022/12/19 11:30:22;;;;;;;;;8.25;3.25;;;;;;;;5043712;28;61914;-75
2022/12/19 11:32:48;;;;;;;;;6.50;5.25;;;;;;;;5042237;28;61928;-74
2022/12/19 11:35:17;;;;;;;;;9.50;5.00;;;;;;;;5042857;28;61952;-75
2022/12/19 11:37:53;;;;;;;;;4.25;4.25;;;;;;;;5043459;28;61867;-74
2022/12/19 11:40:38;;;;;;;;;6.75;4.00;;;;;;;;5043746;28;61757;-74
2022/12/19 11:43:10;;;;;;;;;4.00;3.00;;;;;;;;5043695;28;61738;-75
2022/12/19 11:45:51;;;;;;;;;2.00;2.00;;;;;;;;5043746;28;61834;-75
2022/12/19 11:48:16;;;;;;;;;2.75;2.75;;;;;;;;5042861;28;62867;-75
2022/12/19 11:50:51;;;;;;;;;5.00;4.00;;;;;;;;5042082;28;61768;-75
2022/12/19 11:53:18;;;;;;;;;5.25;3.75;;;;;;;;5043612;28;61965;-75
2022/12/19 11:55:49;;;;;;;;;3.00;3.00;;;;;;;;5043720;28;61737;-75
2022/12/19 11:58:15;;;;;;;;;6.50;2.50;;;;;;;;5041285;28;63856;-76
2022/12/19 12:01:03;;;;;;;;;4.50;4.50;;;;;;;;5041963;28;61758;-76
2022/12/19 12:03:29;;;;;;;;;3.00;3.00;;;;;;;;5038985;28;61784;-75
2022/12/19 12:05:57;;;;;;;;;4.00;4.00;;;;;;;;5042404;28;61917;-76
2022/12/19 12:08:25;;;;;;;;;7.25;6.00;;;;;;;;5042254;28;61865;-77
2022/12/19 12:10:58;;;;;;;;;3.25;3.25;;;;;;;;5042438;28;61968;-77
2022/12/19 12:13:37;;;;;;;;;4.00;3.00;;;;;;;;5042779;28;61860;-77
2022/12/19 12:16:15;;;;;;;;;3.00;3.00;;;;;;;;5039880;28;61830;-77
2022/12/19 12:18:47;;;;;;;;;7.75;2.50;;;;;;;;5041424;28;63751;-77
2022/12/19 12:21:15;;;;;;;;;4.75;4.75;;;;;;;;5040775;28;61931;-76
2022/12/19 12:23:43;;;;;;;;;6.50;3.00;;;;;;;;5042028;28;61943;-76
2022/12/19 12:26:13;;;;;;;;;7.00;3.50;;;;;;;;5042742;28;62168;-77
2022/12/19 12:28:43;;;;;;;;;4.00;4.00;;;;;;;;5042282;28;61897;-77
2022/12/19 12:31:14;;;;;;;;;4.00;2.00;;;;;;;;5042819;28;61797;-76
2022/12/19 12:33:51;;;;;;;;;3.00;3.00;;;;;;;;5042429;28;61912;-78
2022/12/19 12:36:28;;;;;;;;;3.75;3.00;;;;;;;;5040309;28;62123;-78
2022/12/19 12:39:03;;;;;;;;;3.25;2.00;;;;;;;;5042242;28;62963;-76
2022/12/19 12:44:25;;;;;;;;;4.50;4.50;;;;;;;;5042808;28;61706;-76
2022/12/19 12:47:00;;;;;;;;;5.00;3.50;;;;;;;;5042960;28;61886;-76
2022/12/19 12:49:31;;;;;;;;;3.00;3.00;;;;;;;;5042021;28;62864;-76
2022/12/19 12:51:58;;;;;;;;;3.50;3.50;;;;;;;;5041804;28;61870;-76
2022/12/19 12:54:27;;;;;;;;;3.25;3.25;;;;;;;;5041780;28;62128;-76
2022/12/19 12:56:53;;;;;;;;;6.25;5.00;;;;;;;;5042259;28;61876;-76
2022/12/19 12:59:20;;;;;;;;;7.50;2.50;;;;;;;;5039671;28;63426;-76
2022/12/19 13:01:49;;;;;;;;;6.75;3.75;;;;;;;;5041698;28;61710;-76
2022/12/19 13:04:14;;;;;;;;;3.00;3.00;;;;;;;;5041763;28;62212;-76
2022/12/19 13:06:42;;;;;;;;;4.50;3.75;;;;;;;;5040027;28;62198;-76
2022/12/19 13:09:07;;;;;;;;;2.75;2.75;;;;;;;;5041502;28;63022;-76
2022/12/19 13:14:33;;;;;;;;;4.00;3.00;;;;;;;;5029336;28;62835;-76
2022/12/19 13:17:05;;;;;;;;;4.25;4.25;;;;;;;;5025724;28;62188;-76
2022/12/19 13:19:35;;;;;;;;;4.25;3.25;;;;;;;;5020482;28;62657;-76
2022/12/19 13:22:10;;;;;;;;;1.75;1.75;;;;;;;;5032490;28;61957;-76
2022/12/19 13:24:42;;;;;;;;;3.25;3.25;;;;;;;;5042724;28;61778;-76
2022/12/19 13:27:19;;;;;;;;;6.00;4.50;;;;;;;;5037462;28;61776;-76
2022/12/19 13:29:52;;;;;;;;;3.00;2.00;;;;;;;;5040236;28;63691;-76
2022/12/19 13:32:18;;;;;;;;;5.00;4.00;;;;;;;;5041617;28;61956;-76
2022/12/19 13:34:52;;;;;;;;;3.25;3.00;;;;;;;;5040731;28;61907;-77
2022/12/19 13:37:53;;;;;;;;;4.25;3.00;;;;;;;;5041502;28;61853;-76
2022/12/19 13:40:30;;;;;;;;;3.25;2.25;;;;;;;;5016431;28;62944;-76
2022/12/19 13:45:55;;;;;;;;;3.00;2.00;;;;;;;;5019089;28;61759;-76
2022/12/19 13:48:27;;;;;;;;;3.00;3.00;;;;;;;;5001228;28;61948;-76
2022/12/19 13:50:55;;;;;;;;;2.25;2.25;;;;;;;;5017700;28;62038;-76
2022/12/19 13:53:25;;;;;;;;;4.25;4.25;;;;;;;;5017927;28;61965;-76
2022/12/19 13:55:54;;;;;;;;;5.25;4.25;;;;;;;;5008766;28;62006;-76
2022/12/19 13:58:27;;;;;;;;;3.00;3.00;;;;;;;;5007371;28;62197;-76
2022/12/19 14:00:57;;;;;;;;;2.50;2.00;;;;;;;;5015522;28;62834;-76
2022/12/19 14:03:33;;;;;;;;;9.50;3.50;;;;;;;;4992279;28;61861;-76
2022/12/19 14:06:08;;;;;;;;;4.50;3.00;;;;;;;;5016361;28;62183;-76
2022/12/19 14:08:36;;;;;;;;;5.50;4.50;;;;;;;;5001928;28;62031;-76
2022/12/19 14:11:06;;;;;;;;;8.00;6.25;;;;;;;;5016254;28;62440;-76
2022/12/19 14:16:18;;;;;;;;;2.00;2.00;;;;;;;;5023251;28;62052;-76
2022/12/19 14:18:48;;;;;;;;;7.00;6.00;;;;;;;;5035763;28;62083;-76
2022/12/19 14:21:18;;;;;;;;;2.00;2.00;;;;;;;;5034314;28;62732;-76
2022/12/19 14:23:44;;;;;;;;;10.00;4.75;;;;;;;;5040642;28;61783;-76
2022/12/19 14:26:29;;;;;;;;;7.75;7.75;;;;;;;;5033548;28;61775;-76
2022/12/19 14:28:59;;;;;;;;;9.25;7.00;;;;;;;;5030908;28;62016;-75
2022/12/19 14:31:25;;;;;;;;;10.50;8.00;;;;;;;;5040220;28;61903;-75
2022/12/19 14:33:54;;;;;;;;;5.25;3.00;;;;;;;;5030550;28;61769;-76
2022/12/19 14:36:26;;;;;;;;;4.00;3.00;;;;;;;;5032137;28;61706;-75
2022/12/19 14:38:56;;;;;;;;;5.00;3.50;;;;;;;;5040487;28;61777;-75
2022/12/19 14:43:37;;;;;;;;;1.75;1.75;;;;;;;;5040335;28;62695;-75
2022/12/19 14:44:09;;;;;;;;;6.00;3.00;;;;;;;;5043286;28;62464;-75
2022/12/19 14:46:36;;;;;;;;;4.75;3.50;;;;;;;;5043285;28;61976;-75
2022/12/19 14:49:02;;;;;;;;;4.00;4.00;;;;;;;;5043576;28;61892;-75
2022/12/19 14:51:30;;;;;;;;;5.25;2.00;;;;;;;;5042679;28;62095;-75
2022/12/19 14:54:15;;;;;;;;;11.75;5.75;;;;;;;;5043414;28;61812;-75
2022/12/19 14:56:45;;;;;;;;;4.25;4.00;;;;;;;;5058651;28;61834;-75
2022/12/19 14:59:29;;;;;;;;;2.75;2.75;;;;;;;;5043168;28;62029;-75
2022/12/19 15:02:01;;;;;;;;;8.75;6.50;;;;;;;;5055332;28;64927;-75